createdAt,value
2023-02-04T00:00:06.944Z,17.55
2023-02-04T00:03:01.003Z,16.70
2023-02-04T00:05:54.913Z,16.02
2023-02-04T00:08:41.921Z,16.40
2023-02-04T00:11:21.910Z,15.85
2023-02-04T00:14:15.911Z,17.30
2023-02-04T00:17:09.943Z,16.95
2023-02-04T00:20:03.907Z,17.50
2023-02-04T00:22:50.924Z,17.20
2023-02-04T00:25:24.031Z,16.75
2023-02-04T00:28:10.994Z,16.55
2023-02-04T00:30:44.048Z,16.83
2023-02-04T00:33:30.910Z,17.73
2023-02-04T00:36:04.037Z,18.35
2023-02-04T00:38:50.924Z,17.65
2023-02-04T00:41:24.040Z,17.52
2023-02-04T00:44:10.951Z,17.38
2023-02-04T00:46:44.006Z,19.33
2023-02-04T00:49:30.947Z,22.15
2023-02-04T00:52:04.072Z,20.92
2023-02-04T00:54:50.952Z,21.98
2023-02-04T00:57:25.042Z,21.15
2023-02-04T01:00:12.935Z,19.73
2023-02-04T01:02:52.973Z,21.48
2023-02-04T01:05:46.949Z,21.88
2023-02-04T01:08:40.938Z,24.83
2023-02-04T01:11:27.938Z,21.48
2023-02-04T01:14:01.054Z,21.35
2023-02-04T01:16:48.041Z,20.73
2023-02-04T01:19:21.296Z,19.95
2023-02-04T01:22:07.951Z,20.75
2023-02-04T01:24:47.937Z,21.27
2023-02-04T01:27:34.961Z,21.17
2023-02-04T01:30:18.942Z,21.67
2023-02-04T01:33:05.967Z,19.77
2023-02-04T01:35:45.967Z,19.70
2023-02-04T01:38:32.937Z,18.10
2023-02-04T01:41:12.964Z,20.48
2023-02-04T01:44:00.971Z,19.17
2023-02-04T01:46:43.988Z,19.88
2023-02-04T01:49:37.951Z,19.30
2023-02-04T01:52:24.977Z,18.17
2023-02-04T01:55:00.074Z,17.98
2023-02-04T01:57:46.958Z,19.13
2023-02-04T02:00:35.973Z,20.02
2023-02-04T02:03:22.955Z,20.52
2023-02-04T02:06:05.977Z,19.60
2023-02-04T02:08:52.963Z,18.77
2023-02-04T02:11:32.995Z,19.73
2023-02-04T02:14:26.972Z,19.70
2023-02-04T02:17:20.955Z,19.23
2023-02-04T02:20:14.982Z,18.65
2023-02-04T02:23:24.969Z,17.98
2023-02-04T02:25:58.158Z,18.40
2023-02-04T02:28:44.979Z,18.33
2023-02-04T02:31:18.227Z,18.05
2023-02-04T02:34:04.985Z,18.13
2023-02-04T02:36:38.069Z,17.98
2023-02-04T02:39:25.989Z,18.27
2023-02-04T02:41:59.074Z,17.70
2023-02-04T02:44:45.996Z,18.95
2023-02-04T02:47:29.995Z,18.35
2023-02-04T02:50:22.971Z,17.92
2023-02-04T02:52:56.086Z,18.60
2023-02-04T02:55:42.985Z,19.65
2023-02-04T02:58:39.975Z,19.10
2023-02-04T03:01:34.015Z,19.25
2023-02-04T03:04:21.991Z,18.85
2023-02-04T03:06:56.269Z,17.17
2023-02-04T03:09:42.963Z,17.92
2023-02-04T03:12:16.089Z,18.73
2023-02-04T03:15:02.984Z,19.02
2023-02-04T03:17:36.091Z,17.63
2023-02-04T03:20:22.983Z,18.42
2023-02-04T03:22:56.141Z,18.30
2023-02-04T03:25:43.004Z,18.55
2023-02-04T03:28:16.130Z,17.80
2023-02-04T03:31:03.108Z,18.77
2023-02-04T03:33:42.997Z,19.80
2023-02-04T03:36:30.008Z,19.60
2023-02-04T03:39:10.013Z,18.90
2023-02-04T03:42:04.002Z,17.73
2023-02-04T03:44:58.010Z,18.63
2023-02-04T03:47:45.021Z,18.48
2023-02-04T03:50:18.120Z,18.63
2023-02-04T03:53:05.012Z,20.40
2023-02-04T03:55:38.141Z,20.48
2023-02-04T03:58:24.999Z,19.77
2023-02-04T04:00:58.111Z,19.38
2023-02-04T04:03:45.009Z,18.63
2023-02-04T04:06:18.181Z,17.60
2023-02-04T04:09:05.024Z,16.92
2023-02-04T04:11:38.096Z,15.93
2023-02-04T04:14:25.009Z,16.58
2023-02-04T04:16:58.100Z,17.00
2023-02-04T04:19:45.006Z,16.35
2023-02-04T04:22:19.136Z,17.00
2023-02-04T04:25:06.012Z,14.52
2023-02-04T04:27:46.129Z,15.00
2023-02-04T04:30:40.025Z,16.30
2023-02-04T04:33:27.027Z,14.80
2023-02-04T04:36:00.127Z,13.57
2023-02-04T04:38:47.028Z,14.50
2023-02-04T04:41:20.112Z,14.98
2023-02-04T04:44:07.006Z,15.50
2023-02-04T04:46:41.118Z,14.00
2023-02-04T04:49:28.047Z,14.18
2023-02-04T04:52:01.121Z,14.32
2023-02-04T04:54:48.035Z,13.88
2023-02-04T04:57:21.118Z,15.35
2023-02-04T05:00:08.015Z,15.82
2023-02-04T05:02:41.946Z,15.65
2023-02-04T05:05:29.030Z,15.63
2023-02-04T05:08:09.036Z,15.15
2023-02-04T05:11:03.014Z,16.15
2023-02-04T05:13:50.046Z,13.60
2023-02-04T05:16:23.139Z,14.52
2023-02-04T05:19:10.053Z,14.38
2023-02-04T05:21:50.042Z,16.00
2023-02-04T05:24:37.025Z,14.05
2023-02-04T05:27:17.053Z,10.65
2023-02-04T05:30:11.032Z,12.38
2023-02-04T05:33:05.023Z,11.55
2023-02-04T05:35:52.025Z,12.43
2023-02-04T05:38:32.031Z,10.70
2023-02-04T05:41:26.047Z,10.18
2023-02-04T05:44:13.030Z,12.38
2023-02-04T05:46:53.099Z,12.77
2023-02-04T05:49:47.046Z,11.70
2023-02-04T05:52:34.048Z,12.15
2023-02-04T05:55:07.137Z,13.52
2023-02-04T05:57:54.051Z,10.45
2023-02-04T06:00:27.144Z,12.25
2023-02-04T06:03:14.097Z,12.68
2023-02-04T06:05:47.188Z,12.23
2023-02-04T06:08:34.039Z,11.98
2023-02-04T06:11:07.131Z,13.38
2023-02-04T06:13:54.060Z,13.80
2023-02-04T06:16:27.199Z,16.67
2023-02-04T06:19:14.083Z,15.98
2023-02-04T06:21:47.130Z,18.98
2023-02-04T06:24:37.037Z,19.63
2023-02-04T06:27:10.167Z,19.10
2023-02-04T06:29:58.052Z,21.48
2023-02-04T06:32:31.162Z,23.55
2023-02-04T06:35:20.069Z,21.73
2023-02-04T06:37:53.154Z,21.25
2023-02-04T06:40:47.050Z,23.15
2023-02-04T06:43:41.056Z,25.88
2023-02-04T06:46:28.149Z,27.33
2023-02-04T06:49:08.052Z,25.80
2023-02-04T06:52:02.076Z,25.75
2023-02-04T06:54:56.061Z,25.92
2023-02-04T06:57:43.049Z,25.00
2023-02-04T07:00:18.175Z,23.95
2023-02-04T07:03:06.063Z,22.25
2023-02-04T07:05:42.215Z,24.08
2023-02-04T07:08:29.058Z,24.30
2023-02-04T07:11:09.081Z,23.60
2023-02-04T07:13:56.076Z,22.48
2023-02-04T07:16:36.077Z,24.30
2023-02-04T07:19:23.084Z,24.90
2023-02-04T07:21:57.193Z,23.33
2023-02-04T07:24:44.099Z,25.67
2023-02-04T07:27:24.075Z,27.98
2023-02-04T07:30:18.049Z,25.33
2023-02-04T07:33:06.069Z,25.17
2023-02-04T07:35:42.209Z,22.67
2023-02-04T07:38:29.082Z,23.00
2023-02-04T07:41:02.159Z,24.50
2023-02-04T07:43:49.074Z,23.17
2023-02-04T07:46:29.132Z,24.48
2023-02-04T07:49:16.071Z,26.40
2023-02-04T07:51:56.083Z,23.75
2023-02-04T07:54:43.053Z,23.58
2023-02-04T07:57:16.191Z,20.83
2023-02-04T08:00:03.064Z,22.65
2023-02-04T08:02:43.177Z,23.90
2023-02-04T08:05:30.074Z,25.23
2023-02-04T08:08:03.189Z,22.67
2023-02-04T08:10:50.103Z,24.42
2023-02-04T08:13:26.189Z,24.55
2023-02-04T08:16:13.152Z,21.52
2023-02-04T08:18:53.080Z,24.85
2023-02-04T08:21:40.064Z,25.33
2023-02-04T08:24:13.187Z,23.95
2023-02-04T08:27:00.120Z,21.67
2023-02-04T08:29:33.171Z,23.30
2023-02-04T08:32:20.073Z,21.38
2023-02-04T08:34:53.159Z,21.58
2023-02-04T08:37:40.076Z,21.52
2023-02-04T08:40:13.165Z,17.80
2023-02-04T08:43:07.082Z,19.00
2023-02-04T08:45:54.077Z,17.23
2023-02-04T08:48:34.083Z,18.73
2023-02-04T08:51:28.093Z,19.65
2023-02-04T08:54:15.088Z,19.00
2023-02-04T08:56:55.119Z,19.88
2023-02-04T08:59:49.098Z,21.33
2023-02-04T09:02:36.176Z,20.98
2023-02-04T09:05:09.226Z,19.92
2023-02-04T09:07:56.140Z,18.50
2023-02-04T09:10:32.481Z,18.73
2023-02-04T09:13:21.123Z,19.60
2023-02-04T09:16:01.206Z,20.63
2023-02-04T09:18:48.152Z,18.17
2023-02-04T09:21:24.275Z,18.60
2023-02-04T09:24:11.122Z,20.00
2023-02-04T09:26:51.143Z,18.48
2023-02-04T09:29:38.136Z,19.42
2023-02-04T09:32:14.280Z,19.63
2023-02-04T09:35:01.154Z,18.60
2023-02-04T09:37:34.276Z,17.88
2023-02-04T09:40:24.125Z,19.05
2023-02-04T09:43:13.157Z,18.35
2023-02-04T09:46:01.170Z,17.85
2023-02-04T09:48:34.243Z,19.95
2023-02-04T09:51:26.139Z,18.20
2023-02-04T09:54:02.289Z,18.63
2023-02-04T09:56:49.155Z,18.55
2023-02-04T09:59:36.118Z,16.25
2023-02-04T10:02:40.123Z,17.25
2023-02-04T10:05:34.107Z,16.67
2023-02-04T10:08:07.228Z,16.38
2023-02-04T10:10:58.012Z,18.67
2023-02-04T10:13:41.951Z,17.50
2023-02-04T10:16:36.161Z,17.90
2023-02-04T10:19:12.217Z,15.82
2023-02-04T10:21:59.121Z,16.63
2023-02-04T10:24:42.128Z,19.83
2023-02-04T10:27:36.133Z,16.85
2023-02-04T10:30:30.330Z,18.70
2023-02-04T10:33:04.290Z,16.42
2023-02-04T10:35:53.158Z,17.02
2023-02-04T10:38:34.126Z,19.27
2023-02-04T10:41:28.142Z,20.30
2023-02-04T10:44:19.199Z,18.88
2023-02-04T10:46:54.273Z,17.45
2023-02-04T10:49:41.134Z,16.80
2023-02-04T10:52:24.250Z,18.55
2023-02-04T10:55:14.160Z,18.10
2023-02-04T10:57:50.298Z,18.73
2023-02-04T11:00:37.151Z,18.55
2023-02-04T11:03:33.162Z,18.63
2023-02-04T11:06:27.139Z,18.42
2023-02-04T11:09:00.579Z,18.45
2023-02-04T11:11:53.178Z,16.42
2023-02-04T11:14:33.809Z,17.05
2023-02-04T11:17:27.134Z,16.63
2023-02-04T11:20:00.831Z,18.02
2023-02-04T11:22:56.149Z,18.08
2023-02-04T11:25:43.595Z,17.92
2023-02-04T11:28:33.154Z,15.88
2023-02-04T11:31:15.237Z,17.15
2023-02-04T11:34:26.211Z,16.08
2023-02-04T11:37:22.140Z,16.48
2023-02-04T11:40:05.174Z,15.98
2023-02-04T11:42:59.152Z,15.55
2023-02-04T11:45:54.180Z,17.55
2023-02-04T11:48:43.177Z,17.23
2023-02-04T11:51:22.263Z,16.33
2023-02-04T11:54:09.155Z,15.73
2023-02-04T11:56:42.248Z,16.92
2023-02-04T11:59:29.157Z,17.65
2023-02-04T12:02:24.372Z,15.95
2023-02-04T12:05:25.198Z,18.75
2023-02-04T12:08:05.201Z,17.65
2023-02-04T12:11:03.195Z,17.45
2023-02-04T12:14:06.181Z,18.80
2023-02-04T12:17:04.182Z,18.27
2023-02-04T12:19:51.185Z,20.13
2023-02-04T12:22:24.278Z,22.92
2023-02-04T12:25:11.176Z,23.42
2023-02-04T12:27:51.294Z,22.73
2023-02-04T12:30:45.227Z,22.55
2023-02-04T12:33:32.177Z,21.25
2023-02-04T12:36:12.173Z,21.15
2023-02-04T12:39:06.179Z,22.42
2023-02-04T12:42:00.169Z,21.80
2023-02-04T12:44:47.181Z,23.95
2023-02-04T12:47:20.277Z,25.40
2023-02-04T12:50:07.188Z,19.40
2023-02-04T12:52:41.326Z,24.08
2023-02-04T12:55:29.313Z,23.88
2023-02-04T12:58:02.302Z,23.95
2023-02-04T13:00:49.234Z,23.52
2023-02-04T13:03:23.748Z,21.88
2023-02-04T13:06:10.318Z,22.95
2023-02-04T13:08:43.276Z,23.77
2023-02-04T13:11:30.174Z,22.48
2023-02-04T13:14:03.290Z,23.98
2023-02-04T13:16:50.185Z,21.15
2023-02-04T13:19:23.346Z,23.67
2023-02-04T13:22:10.225Z,21.63
2023-02-04T13:24:50.177Z,20.17
2023-02-04T13:27:44.193Z,21.17
2023-02-04T13:30:31.201Z,20.35
2023-02-04T13:33:04.312Z,17.95
2023-02-04T13:35:52.208Z,17.65
2023-02-04T13:38:26.011Z,20.90
2023-02-04T13:41:13.169Z,19.38
2023-02-04T13:43:53.201Z,20.13
2023-02-04T13:46:47.196Z,19.17
2023-02-04T13:49:34.212Z,19.50
2023-02-04T13:52:14.184Z,19.30
2023-02-04T13:55:01.231Z,19.15
2023-02-04T13:57:34.453Z,20.75
2023-02-04T14:00:21.192Z,20.05
2023-02-04T14:02:56.312Z,18.00
2023-02-04T14:05:43.217Z,17.35
2023-02-04T14:08:23.224Z,16.10
2023-02-04T14:11:17.189Z,14.60
2023-02-04T14:14:04.196Z,15.63
2023-02-04T14:16:38.059Z,15.90
2023-02-04T14:19:26.205Z,12.52
2023-02-04T14:22:06.230Z,14.85
2023-02-04T14:25:00.217Z,14.93
2023-02-04T14:27:54.296Z,14.45
2023-02-04T14:30:48.245Z,13.80
2023-02-04T14:33:35.193Z,14.88
2023-02-04T14:36:08.310Z,13.02
2023-02-04T14:38:55.204Z,13.60
2023-02-04T14:41:30.144Z,11.68
2023-02-04T14:44:17.208Z,13.45
2023-02-04T14:46:50.454Z,10.73
2023-02-04T14:49:38.221Z,12.20
2023-02-04T14:52:19.207Z,11.68
2023-02-04T14:55:06.225Z,9.82
2023-02-04T14:57:42.307Z,11.38
2023-02-04T15:00:29.218Z,12.43
2023-02-04T15:03:09.230Z,13.50
2023-02-04T15:05:56.214Z,12.73
2023-02-04T15:08:36.233Z,12.13
2023-02-04T15:11:30.215Z,11.60
2023-02-04T15:14:17.222Z,11.13
2023-02-04T15:16:50.460Z,11.68
2023-02-04T15:19:41.239Z,12.45
2023-02-04T15:22:14.327Z,12.73
2023-02-04T15:25:01.308Z,14.30
2023-02-04T15:27:41.276Z,12.30
2023-02-04T15:30:35.777Z,11.85
2023-02-04T15:33:23.279Z,13.10
2023-02-04T15:36:03.268Z,12.40
2023-02-04T15:38:50.236Z,11.85
2023-02-04T15:41:30.231Z,13.90
2023-02-04T15:44:24.231Z,14.20
2023-02-04T15:47:18.221Z,15.93
2023-02-04T15:50:05.242Z,13.32
2023-02-04T15:52:38.360Z,16.00
2023-02-04T15:55:25.234Z,10.10
2023-02-04T15:57:58.345Z,12.90
2023-02-04T16:00:46.257Z,14.38
2023-02-04T16:03:19.333Z,12.90
2023-02-04T16:06:06.237Z,13.27
2023-02-04T16:08:46.230Z,13.85
2023-02-04T16:11:40.243Z,14.30
2023-02-04T16:14:27.251Z,14.48
2023-02-04T16:17:03.840Z,17.45
2023-02-04T16:19:50.245Z,16.38
2023-02-04T16:22:30.253Z,15.48
2023-02-04T16:25:24.280Z,17.08
2023-02-04T16:28:11.355Z,17.35
2023-02-04T16:30:44.405Z,15.93
2023-02-04T16:33:33.244Z,15.27
2023-02-04T16:36:17.084Z,18.98
2023-02-04T16:39:12.267Z,15.27
2023-02-04T16:42:02.292Z,15.35
2023-02-04T16:44:56.242Z,16.52
2023-02-04T16:47:43.255Z,15.40
2023-02-04T16:50:17.371Z,13.05
2023-02-04T16:53:04.264Z,14.30
2023-02-04T16:55:39.868Z,16.15
2023-02-04T16:58:26.257Z,14.63
2023-02-04T17:01:06.248Z,13.85
2023-02-04T17:03:53.354Z,15.15
2023-02-04T17:06:33.256Z,12.75
2023-02-04T17:09:21.272Z,12.05
2023-02-04T17:12:01.275Z,13.13
2023-02-04T17:14:48.257Z,14.13
2023-02-04T17:17:21.355Z,13.68
2023-02-04T17:20:08.276Z,13.65
2023-02-04T17:22:48.256Z,13.40
2023-02-04T17:25:35.403Z,13.25
2023-02-04T17:28:08.418Z,12.63
2023-02-04T17:30:55.324Z,13.57
2023-02-04T17:33:35.254Z,12.50
2023-02-04T17:36:29.361Z,14.52
2023-02-04T17:39:23.259Z,14.20
2023-02-04T17:42:17.251Z,14.30
2023-02-04T17:45:11.256Z,15.95
2023-02-04T17:47:58.255Z,15.07
2023-02-04T17:50:33.934Z,14.73
2023-02-04T17:53:20.278Z,15.13
2023-02-04T17:55:53.384Z,14.52
2023-02-04T17:58:42.310Z,12.88
2023-02-04T18:01:30.382Z,14.30
2023-02-04T18:04:27.281Z,16.60
2023-02-04T18:07:16.305Z,13.73
2023-02-04T18:09:49.392Z,15.10
2023-02-04T18:12:36.279Z,16.08
2023-02-04T18:15:12.385Z,15.52
2023-02-04T18:18:22.288Z,14.25
2023-02-04T18:21:09.373Z,15.32
2023-02-04T18:24:17.334Z,16.30
2023-02-04T18:27:06.283Z,16.33
2023-02-04T18:30:08.292Z,14.75
2023-02-04T18:33:02.258Z,14.75
2023-02-04T18:35:59.304Z,14.95
2023-02-04T18:38:46.271Z,15.48
2023-02-04T18:41:26.542Z,13.48
2023-02-04T18:44:30.298Z,15.88
2023-02-04T18:47:03.442Z,13.27
2023-02-04T18:49:50.270Z,16.38
2023-02-04T18:52:28.529Z,14.05
2023-02-04T18:55:30.294Z,12.20
2023-02-04T18:58:04.499Z,13.10
2023-02-04T19:00:56.309Z,14.50
2023-02-04T19:03:42.133Z,14.70
2023-02-04T19:06:39.275Z,15.07
2023-02-04T19:09:18.414Z,14.00
2023-02-04T19:12:15.629Z,12.93
2023-02-04T19:14:58.310Z,13.80
2023-02-04T19:17:45.291Z,14.70
2023-02-04T19:20:29.705Z,14.55
2023-02-04T19:23:24.304Z,14.70
2023-02-04T19:25:59.414Z,14.35
2023-02-04T19:28:46.295Z,14.38
2023-02-04T19:31:22.431Z,13.93
2023-02-04T19:34:30.309Z,14.15
2023-02-04T19:37:03.430Z,15.40
2023-02-04T19:39:50.314Z,12.98
2023-02-04T19:42:42.298Z,13.43
2023-02-04T19:45:39.327Z,11.70
2023-02-04T19:48:35.346Z,13.05
2023-02-04T19:51:38.291Z,12.30
2023-02-04T19:54:35.304Z,14.00
2023-02-04T19:57:31.306Z,15.00
2023-02-04T20:00:14.315Z,12.60
2023-02-04T20:03:01.310Z,13.63
2023-02-04T20:05:45.381Z,15.68
2023-02-04T20:08:41.330Z,15.63
2023-02-04T20:11:41.691Z,15.68
2023-02-04T20:14:34.313Z,14.38
2023-02-04T20:17:09.447Z,12.60
2023-02-04T20:19:56.333Z,14.98
2023-02-04T20:22:52.334Z,15.75
2023-02-04T20:25:52.329Z,16.80
2023-02-04T20:28:43.321Z,15.18
2023-02-04T20:31:34.626Z,13.93
2023-02-04T20:34:29.324Z,13.88
2023-02-04T20:37:02.499Z,14.32
2023-02-04T20:40:04.396Z,16.70
2023-02-04T20:43:03.323Z,15.60
2023-02-04T20:46:02.381Z,15.73
2023-02-04T20:48:48.301Z,15.00
2023-02-04T20:51:42.331Z,16.63
2023-02-04T20:54:36.314Z,14.50
2023-02-04T20:57:27.348Z,15.02
2023-02-04T21:00:00.475Z,14.98
2023-02-04T21:02:48.307Z,13.57
2023-02-04T21:05:30.549Z,12.75
2023-02-04T21:08:32.320Z,15.82
2023-02-04T21:11:06.490Z,15.05
2023-02-04T21:13:53.331Z,15.90
2023-02-04T21:16:27.444Z,16.40
2023-02-04T21:19:14.339Z,15.55
2023-02-04T21:21:48.826Z,13.30
2023-02-04T21:24:38.342Z,13.93
2023-02-04T21:27:20.523Z,15.13
2023-02-04T21:30:14.306Z,13.57
2023-02-04T21:33:04.340Z,12.40
2023-02-04T21:35:37.474Z,14.55
2023-02-04T21:38:24.344Z,13.68
2023-02-04T21:40:57.541Z,13.68
2023-02-04T21:43:51.356Z,15.80
2023-02-04T21:46:39.421Z,16.80
2023-02-04T21:49:19.327Z,17.83
2023-02-04T21:52:06.384Z,15.23
2023-02-04T21:54:39.452Z,14.52
2023-02-04T21:57:26.364Z,13.88
2023-02-04T21:59:59.450Z,14.10
2023-02-04T22:02:46.335Z,14.73
2023-02-04T22:05:21.375Z,14.90
2023-02-04T22:08:08.327Z,15.00
2023-02-04T22:10:48.351Z,13.25
2023-02-04T22:13:57.336Z,15.15
2023-02-04T22:16:37.560Z,16.05
2023-02-04T22:19:32.429Z,14.15
2023-02-04T22:22:19.333Z,15.63
2023-02-04T22:24:59.367Z,15.02
2023-02-04T22:27:53.577Z,16.02
2023-02-04T22:30:47.380Z,16.20
2023-02-04T22:33:41.382Z,16.85
2023-02-04T22:36:35.452Z,13.90
2023-02-04T22:39:29.356Z,13.48
2023-02-04T22:42:16.390Z,14.43
2023-02-04T22:44:56.379Z,14.00
2023-02-04T22:47:51.347Z,14.00
2023-02-04T22:50:38.429Z,14.50
2023-02-04T22:53:11.463Z,15.15
2023-02-04T22:55:58.366Z,12.70
2023-02-04T22:58:31.601Z,14.02
2023-02-04T23:01:18.362Z,14.93
2023-02-04T23:03:53.339Z,15.38
2023-02-04T23:06:41.465Z,13.95
2023-02-04T23:09:14.581Z,14.77
2023-02-04T23:12:03.452Z,14.75
2023-02-04T23:14:39.329Z,15.10
2023-02-04T23:17:26.387Z,14.00
2023-02-04T23:20:06.372Z,14.10
2023-02-04T23:23:01.362Z,15.85
2023-02-04T23:25:48.358Z,15.57
2023-02-04T23:28:29.443Z,14.95
2023-02-04T23:31:23.497Z,13.65
2023-02-04T23:34:10.371Z,14.93
2023-02-04T23:36:45.676Z,15.60
2023-02-04T23:39:32.363Z,15.20
2023-02-04T23:42:05.551Z,15.02
2023-02-04T23:44:59.450Z,14.40
2023-02-04T23:47:53.473Z,14.90
2023-02-04T23:50:40.379Z,16.52
2023-02-04T23:53:20.401Z,15.65
2023-02-04T23:56:10.375Z,14.90
2023-02-04T23:58:50.426Z,14.10
